sensor_id;sensor_type;location;lat;lon;timestamp;P1;durP1;ratioP1;P2;durP2;ratioP2
25327;SDS011;13279;51.300;12.394;2022-09-29T00:01:26;7.53;;;5.33;;
25327;SDS011;13279;51.300;12.394;2022-09-29T00:03:53;7.30;;;4.63;;
25327;SDS011;13279;51.300;12.394;2022-09-29T00:06:21;5.63;;;4.23;;
25327;SDS011;13279;51.300;12.394;2022-09-29T00:08:48;6.30;;;4.00;;
25327;SDS011;13279;51.300;12.394;2022-09-29T00:11:17;6.10;;;4.30;;
25327;SDS011;13279;51.300;12.394;2022-09-29T00:13:45;6.17;;;4.33;;
25327;SDS011;13279;51.300;12.394;2022-09-29T00:16:13;10.17;;;4.80;;
25327;SDS011;13279;51.300;12.394;2022-09-29T00:18:41;11.13;;;4.73;;
25327;SDS011;13279;51.300;12.394;2022-09-29T00:21:09;9.17;;;4.77;;
25327;SDS011;13279;51.300;12.394;2022-09-29T00:23:40;6.63;;;4.43;;
25327;SDS011;13279;51.300;12.394;2022-09-29T00:26:08;7.93;;;4.50;;
25327;SDS011;13279;51.300;12.394;2022-09-29T00:28:39;8.10;;;4.93;;
25327;SDS011;13279;51.300;12.394;2022-09-29T00:31:08;6.30;;;4.33;;
25327;SDS011;13279;51.300;12.394;2022-09-29T00:33:37;8.60;;;4.60;;
25327;SDS011;13279;51.300;12.394;2022-09-29T00:36:06;6.93;;;4.27;;
25327;SDS011;13279;51.300;12.394;2022-09-29T00:38:35;7.73;;;4.10;;
25327;SDS011;13279;51.300;12.394;2022-09-29T00:41:02;11.07;;;4.00;;
25327;SDS011;13279;51.300;12.394;2022-09-29T00:43:48;7.50;;;4.70;;
25327;SDS011;13279;51.300;12.394;2022-09-29T00:46:20;7.70;;;4.53;;
25327;SDS011;13279;51.300;12.394;2022-09-29T00:48:51;5.30;;;4.20;;
25327;SDS011;13279;51.300;12.394;2022-09-29T00:51:21;8.17;;;4.70;;
25327;SDS011;13279;51.300;12.394;2022-09-29T00:53:49;9.10;;;4.80;;
25327;SDS011;13279;51.300;12.394;2022-09-29T00:56:17;7.63;;;4.63;;
25327;SDS011;13279;51.300;12.394;2022-09-29T00:58:48;6.90;;;4.50;;
25327;SDS011;13279;51.300;12.394;2022-09-29T01:01:19;7.00;;;4.37;;
25327;SDS011;13279;51.300;12.394;2022-09-29T01:03:47;7.53;;;4.60;;
25327;SDS011;13279;51.300;12.394;2022-09-29T01:06:21;6.63;;;4.33;;
25327;SDS011;13279;51.300;12.394;2022-09-29T01:08:54;6.57;;;4.30;;
25327;SDS011;13279;51.300;12.394;2022-09-29T01:11:26;7.10;;;4.27;;
25327;SDS011;13279;51.300;12.394;2022-09-29T01:13:55;7.77;;;4.07;;
25327;SDS011;13279;51.300;12.394;2022-09-29T01:16:29;7.30;;;4.73;;
25327;SDS011;13279;51.300;12.394;2022-09-29T01:18:58;6.60;;;4.23;;
25327;SDS011;13279;51.300;12.394;2022-09-29T01:21:29;7.17;;;4.50;;
25327;SDS011;13279;51.300;12.394;2022-09-29T01:24:14;7.87;;;4.53;;
25327;SDS011;13279;51.300;12.394;2022-09-29T01:27:12;7.63;;;4.60;;
25327;SDS011;13279;51.300;12.394;2022-09-29T01:30:00;6.17;;;4.20;;
25327;SDS011;13279;51.300;12.394;2022-09-29T01:35:25;11.37;;;5.37;;
25327;SDS011;13279;51.300;12.394;2022-09-29T01:38:06;11.47;;;4.37;;
25327;SDS011;13279;51.300;12.394;2022-09-29T01:40:46;7.67;;;5.10;;
25327;SDS011;13279;51.300;12.394;2022-09-29T01:43:19;8.47;;;5.17;;
25327;SDS011;13279;51.300;12.394;2022-09-29T01:45:56;10.63;;;5.27;;
25327;SDS011;13279;51.300;12.394;2022-09-29T01:48:33;12.10;;;5.47;;
25327;SDS011;13279;51.300;12.394;2022-09-29T01:51:06;8.97;;;4.60;;
25327;SDS011;13279;51.300;12.394;2022-09-29T01:53:39;9.60;;;5.23;;
25327;SDS011;13279;51.300;12.394;2022-09-29T01:56:12;9.93;;;5.10;;
25327;SDS011;13279;51.300;12.394;2022-09-29T01:58:46;8.80;;;5.17;;
25327;SDS011;13279;51.300;12.394;2022-09-29T02:01:19;10.07;;;5.40;;
25327;SDS011;13279;51.300;12.394;2022-09-29T02:03:52;7.20;;;5.33;;
25327;SDS011;13279;51.300;12.394;2022-09-29T02:06:26;15.43;;;8.07;;
25327;SDS011;13279;51.300;12.394;2022-09-29T02:09:02;9.00;;;5.47;;
25327;SDS011;13279;51.300;12.394;2022-09-29T02:11:34;8.13;;;5.13;;
25327;SDS011;13279;51.300;12.394;2022-09-29T02:14:05;9.43;;;5.90;;
25327;SDS011;13279;51.300;12.394;2022-09-29T02:16:38;10.23;;;5.60;;
25327;SDS011;13279;51.300;12.394;2022-09-29T02:19:12;9.87;;;5.70;;
25327;SDS011;13279;51.300;12.394;2022-09-29T02:21:43;10.63;;;5.33;;
25327;SDS011;13279;51.300;12.394;2022-09-29T02:24:10;11.20;;;5.20;;
25327;SDS011;13279;51.300;12.394;2022-09-29T02:26:39;7.27;;;4.87;;
25327;SDS011;13279;51.300;12.394;2022-09-29T02:29:09;8.27;;;5.03;;
25327;SDS011;13279;51.300;12.394;2022-09-29T02:31:37;9.90;;;5.70;;
25327;SDS011;13279;51.300;12.394;2022-09-29T02:34:06;11.90;;;5.50;;
25327;SDS011;13279;51.300;12.394;2022-09-29T02:36:39;15.27;;;6.03;;
25327;SDS011;13279;51.300;12.394;2022-09-29T02:39:15;9.47;;;5.37;;
25327;SDS011;13279;51.300;12.394;2022-09-29T02:41:53;9.00;;;5.67;;
25327;SDS011;13279;51.300;12.394;2022-09-29T02:44:33;15.23;;;6.57;;
25327;SDS011;13279;51.300;12.394;2022-09-29T02:47:14;11.63;;;6.27;;
25327;SDS011;13279;51.300;12.394;2022-09-29T02:50:06;10.77;;;6.47;;
25327;SDS011;13279;51.300;12.394;2022-09-29T02:52:51;11.23;;;6.73;;
25327;SDS011;13279;51.300;12.394;2022-09-29T02:55:30;8.07;;;5.53;;
25327;SDS011;13279;51.300;12.394;2022-09-29T02:58:05;10.20;;;6.03;;
25327;SDS011;13279;51.300;12.394;2022-09-29T03:00:38;14.03;;;5.73;;
25327;SDS011;13279;51.300;12.394;2022-09-29T03:03:07;9.60;;;6.07;;
25327;SDS011;13279;51.300;12.394;2022-09-29T03:05:34;7.97;;;5.13;;
25327;SDS011;13279;51.300;12.394;2022-09-29T03:08:03;9.30;;;5.50;;
25327;SDS011;13279;51.300;12.394;2022-09-29T03:10:31;11.10;;;6.37;;
25327;SDS011;13279;51.300;12.394;2022-09-29T03:12:58;12.63;;;5.57;;
25327;SDS011;13279;51.300;12.394;2022-09-29T03:15:26;10.10;;;6.17;;
25327;SDS011;13279;51.300;12.394;2022-09-29T03:17:54;9.67;;;5.23;;
25327;SDS011;13279;51.300;12.394;2022-09-29T03:20:22;8.07;;;5.37;;
25327;SDS011;13279;51.300;12.394;2022-09-29T03:22:54;7.27;;;5.10;;
25327;SDS011;13279;51.300;12.394;2022-09-29T03:25:23;9.57;;;5.50;;
25327;SDS011;13279;51.300;12.394;2022-09-29T03:27:50;11.23;;;5.70;;
25327;SDS011;13279;51.300;12.394;2022-09-29T03:30:18;16.17;;;6.37;;
25327;SDS011;13279;51.300;12.394;2022-09-29T03:32:47;11.53;;;6.13;;
25327;SDS011;13279;51.300;12.394;2022-09-29T03:35:15;9.23;;;5.97;;
25327;SDS011;13279;51.300;12.394;2022-09-29T03:37:44;9.60;;;5.53;;
25327;SDS011;13279;51.300;12.394;2022-09-29T03:40:11;12.93;;;6.17;;
25327;SDS011;13279;51.300;12.394;2022-09-29T03:42:40;11.83;;;5.60;;
25327;SDS011;13279;51.300;12.394;2022-09-29T03:45:11;8.43;;;5.60;;
25327;SDS011;13279;51.300;12.394;2022-09-29T03:47:39;10.73;;;6.03;;
25327;SDS011;13279;51.300;12.394;2022-09-29T03:50:06;10.93;;;5.80;;
25327;SDS011;13279;51.300;12.394;2022-09-29T03:52:34;12.03;;;5.87;;
25327;SDS011;13279;51.300;12.394;2022-09-29T03:55:01;14.90;;;6.73;;
25327;SDS011;13279;51.300;12.394;2022-09-29T03:57:29;13.10;;;5.93;;
25327;SDS011;13279;51.300;12.394;2022-09-29T03:59:58;11.07;;;6.33;;
25327;SDS011;13279;51.300;12.394;2022-09-29T04:02:29;13.37;;;6.13;;
25327;SDS011;13279;51.300;12.394;2022-09-29T04:04:59;12.53;;;6.23;;
25327;SDS011;13279;51.300;12.394;2022-09-29T04:07:26;15.10;;;5.63;;
25327;SDS011;13279;51.300;12.394;2022-09-29T04:09:54;11.73;;;5.77;;
25327;SDS011;13279;51.300;12.394;2022-09-29T04:12:21;10.63;;;6.67;;
25327;SDS011;13279;51.300;12.394;2022-09-29T04:14:49;9.87;;;6.43;;
25327;SDS011;13279;51.300;12.394;2022-09-29T04:17:19;8.30;;;5.83;;
25327;SDS011;13279;51.300;12.394;2022-09-29T04:19:46;10.80;;;6.37;;
25327;SDS011;13279;51.300;12.394;2022-09-29T04:22:13;10.97;;;6.00;;
25327;SDS011;13279;51.300;12.394;2022-09-29T04:24:43;11.50;;;6.10;;
25327;SDS011;13279;51.300;12.394;2022-09-29T04:27:12;12.87;;;6.33;;
25327;SDS011;13279;51.300;12.394;2022-09-29T04:29:40;10.20;;;6.03;;
25327;SDS011;13279;51.300;12.394;2022-09-29T04:32:07;10.63;;;6.10;;
25327;SDS011;13279;51.300;12.394;2022-09-29T04:34:36;9.70;;;5.50;;
25327;SDS011;13279;51.300;12.394;2022-09-29T04:37:03;17.60;;;7.07;;
25327;SDS011;13279;51.300;12.394;2022-09-29T04:39:35;14.73;;;6.20;;
25327;SDS011;13279;51.300;12.394;2022-09-29T04:42:03;9.07;;;5.70;;
25327;SDS011;13279;51.300;12.394;2022-09-29T04:44:30;10.47;;;5.77;;
25327;SDS011;13279;51.300;12.394;2022-09-29T04:46:58;10.73;;;5.67;;
25327;SDS011;13279;51.300;12.394;2022-09-29T04:49:25;10.13;;;6.37;;
25327;SDS011;13279;51.300;12.394;2022-09-29T04:51:54;10.60;;;6.13;;
25327;SDS011;13279;51.300;12.394;2022-09-29T04:54:21;14.53;;;6.60;;
25327;SDS011;13279;51.300;12.394;2022-09-29T04:56:49;9.03;;;5.77;;
25327;SDS011;13279;51.300;12.394;2022-09-29T04:59:17;10.23;;;5.73;;
25327;SDS011;13279;51.300;12.394;2022-09-29T05:01:44;8.27;;;5.37;;
25327;SDS011;13279;51.300;12.394;2022-09-29T05:04:11;10.67;;;6.13;;
25327;SDS011;13279;51.300;12.394;2022-09-29T05:06:39;13.60;;;6.27;;
25327;SDS011;13279;51.300;12.394;2022-09-29T05:09:08;12.17;;;6.03;;
25327;SDS011;13279;51.300;12.394;2022-09-29T05:11:35;10.13;;;6.33;;
25327;SDS011;13279;51.300;12.394;2022-09-29T05:14:03;12.27;;;6.10;;
25327;SDS011;13279;51.300;12.394;2022-09-29T05:16:31;12.83;;;7.10;;
25327;SDS011;13279;51.300;12.394;2022-09-29T05:18:59;12.80;;;7.13;;
25327;SDS011;13279;51.300;12.394;2022-09-29T05:21:27;12.10;;;6.60;;
25327;SDS011;13279;51.300;12.394;2022-09-29T05:23:55;15.67;;;8.00;;
25327;SDS011;13279;51.300;12.394;2022-09-29T05:26:26;19.07;;;7.67;;
25327;SDS011;13279;51.300;12.394;2022-09-29T05:28:56;14.13;;;7.93;;
25327;SDS011;13279;51.300;12.394;2022-09-29T05:31:24;18.90;;;7.70;;
25327;SDS011;13279;51.300;12.394;2022-09-29T05:33:51;15.33;;;7.53;;
25327;SDS011;13279;51.300;12.394;2022-09-29T05:36:21;13.30;;;7.43;;
25327;SDS011;13279;51.300;12.394;2022-09-29T05:38:49;15.00;;;8.10;;
25327;SDS011;13279;51.300;12.394;2022-09-29T05:41:17;13.30;;;7.43;;
25327;SDS011;13279;51.300;12.394;2022-09-29T05:43:48;14.87;;;7.30;;
25327;SDS011;13279;51.300;12.394;2022-09-29T05:46:18;16.37;;;8.17;;
25327;SDS011;13279;51.300;12.394;2022-09-29T05:48:46;11.20;;;6.80;;
25327;SDS011;13279;51.300;12.394;2022-09-29T05:51:17;17.90;;;7.80;;
25327;SDS011;13279;51.300;12.394;2022-09-29T05:53:46;15.03;;;7.60;;
25327;SDS011;13279;51.300;12.394;2022-09-29T05:56:14;15.37;;;6.70;;
25327;SDS011;13279;51.300;12.394;2022-09-29T05:58:43;16.30;;;7.13;;
25327;SDS011;13279;51.300;12.394;2022-09-29T06:01:12;19.20;;;6.77;;
25327;SDS011;13279;51.300;12.394;2022-09-29T06:03:41;11.90;;;6.70;;
25327;SDS011;13279;51.300;12.394;2022-09-29T06:06:10;12.50;;;7.40;;
25327;SDS011;13279;51.300;12.394;2022-09-29T06:08:39;13.87;;;6.33;;
25327;SDS011;13279;51.300;12.394;2022-09-29T06:11:08;11.20;;;6.03;;
25327;SDS011;13279;51.300;12.394;2022-09-29T06:13:37;14.40;;;6.47;;
25327;SDS011;13279;51.300;12.394;2022-09-29T06:16:05;11.97;;;6.60;;
25327;SDS011;13279;51.300;12.394;2022-09-29T06:18:35;16.13;;;7.40;;
25327;SDS011;13279;51.300;12.394;2022-09-29T06:21:03;13.50;;;6.73;;
25327;SDS011;13279;51.300;12.394;2022-09-29T06:23:32;16.30;;;6.37;;
25327;SDS011;13279;51.300;12.394;2022-09-29T06:26:00;13.53;;;6.30;;
25327;SDS011;13279;51.300;12.394;2022-09-29T06:28:30;11.07;;;6.70;;
25327;SDS011;13279;51.300;12.394;2022-09-29T06:30:58;12.43;;;7.20;;
25327;SDS011;13279;51.300;12.394;2022-09-29T06:33:26;14.53;;;6.40;;
25327;SDS011;13279;51.300;12.394;2022-09-29T06:35:55;15.67;;;7.33;;
25327;SDS011;13279;51.300;12.394;2022-09-29T06:38:40;16.20;;;6.73;;
25327;SDS011;13279;51.300;12.394;2022-09-29T06:41:08;16.37;;;7.37;;
25327;SDS011;13279;51.300;12.394;2022-09-29T06:43:36;15.23;;;7.27;;
25327;SDS011;13279;51.300;12.394;2022-09-29T06:46:03;15.30;;;6.13;;
25327;SDS011;13279;51.300;12.394;2022-09-29T06:48:31;10.60;;;5.60;;
25327;SDS011;13279;51.300;12.394;2022-09-29T06:50:59;15.20;;;6.77;;
25327;SDS011;13279;51.300;12.394;2022-09-29T06:53:27;19.13;;;7.03;;
25327;SDS011;13279;51.300;12.394;2022-09-29T06:55:55;13.80;;;7.43;;
25327;SDS011;13279;51.300;12.394;2022-09-29T06:58:22;12.30;;;7.63;;
25327;SDS011;13279;51.300;12.394;2022-09-29T07:00:50;17.30;;;6.67;;
25327;SDS011;13279;51.300;12.394;2022-09-29T07:03:18;11.60;;;6.70;;
25327;SDS011;13279;51.300;12.394;2022-09-29T07:05:46;10.23;;;6.00;;
25327;SDS011;13279;51.300;12.394;2022-09-29T07:08:15;12.17;;;6.33;;
25327;SDS011;13279;51.300;12.394;2022-09-29T07:10:42;11.43;;;6.53;;
25327;SDS011;13279;51.300;12.394;2022-09-29T07:13:11;10.97;;;6.87;;
25327;SDS011;13279;51.300;12.394;2022-09-29T07:15:39;11.87;;;6.97;;
25327;SDS011;13279;51.300;12.394;2022-09-29T07:18:06;10.10;;;6.53;;
25327;SDS011;13279;51.300;12.394;2022-09-29T07:20:34;12.97;;;5.67;;
25327;SDS011;13279;51.300;12.394;2022-09-29T07:23:01;15.00;;;6.57;;
25327;SDS011;13279;51.300;12.394;2022-09-29T07:25:30;10.23;;;6.40;;
25327;SDS011;13279;51.300;12.394;2022-09-29T07:27:59;13.77;;;6.13;;
25327;SDS011;13279;51.300;12.394;2022-09-29T07:30:27;6.77;;;5.07;;
25327;SDS011;13279;51.300;12.394;2022-09-29T07:32:55;8.03;;;5.17;;
25327;SDS011;13279;51.300;12.394;2022-09-29T07:35:23;6.67;;;5.40;;
25327;SDS011;13279;51.300;12.394;2022-09-29T07:37:50;6.60;;;4.93;;
25327;SDS011;13279;51.300;12.394;2022-09-29T07:40:18;6.77;;;5.30;;
25327;SDS011;13279;51.300;12.394;2022-09-29T07:42:50;8.67;;;5.00;;
25327;SDS011;13279;51.300;12.394;2022-09-29T07:45:17;10.90;;;5.10;;
25327;SDS011;13279;51.300;12.394;2022-09-29T07:47:45;6.53;;;5.03;;
25327;SDS011;13279;51.300;12.394;2022-09-29T07:50:13;6.07;;;5.00;;
25327;SDS011;13279;51.300;12.394;2022-09-29T07:52:40;8.87;;;5.43;;
25327;SDS011;13279;51.300;12.394;2022-09-29T07:55:08;10.77;;;5.27;;
25327;SDS011;13279;51.300;12.394;2022-09-29T07:57:35;12.03;;;5.47;;
25327;SDS011;13279;51.300;12.394;2022-09-29T08:00:05;8.93;;;4.80;;
25327;SDS011;13279;51.300;12.394;2022-09-29T08:02:36;6.43;;;5.10;;
25327;SDS011;13279;51.300;12.394;2022-09-29T08:05:06;7.70;;;5.23;;
25327;SDS011;13279;51.300;12.394;2022-09-29T08:07:34;7.20;;;5.23;;
25327;SDS011;13279;51.300;12.394;2022-09-29T08:10:01;11.53;;;4.93;;
25327;SDS011;13279;51.300;12.394;2022-09-29T08:12:29;7.70;;;5.07;;
25327;SDS011;13279;51.300;12.394;2022-09-29T08:14:57;9.87;;;4.70;;
25327;SDS011;13279;51.300;12.394;2022-09-29T08:17:25;7.43;;;4.70;;
25327;SDS011;13279;51.300;12.394;2022-09-29T08:19:53;6.43;;;4.33;;
25327;SDS011;13279;51.300;12.394;2022-09-29T08:22:20;6.10;;;3.93;;
25327;SDS011;13279;51.300;12.394;2022-09-29T08:24:48;6.23;;;4.60;;
25327;SDS011;13279;51.300;12.394;2022-09-29T08:27:15;5.23;;;3.93;;
25327;SDS011;13279;51.300;12.394;2022-09-29T08:29:43;5.23;;;4.43;;
25327;SDS011;13279;51.300;12.394;2022-09-29T08:32:11;5.60;;;3.97;;
25327;SDS011;13279;51.300;12.394;2022-09-29T08:34:41;12.20;;;4.33;;
25327;SDS011;13279;51.300;12.394;2022-09-29T08:37:08;4.27;;;3.83;;
25327;SDS011;13279;51.300;12.394;2022-09-29T08:39:36;8.00;;;4.87;;
25327;SDS011;13279;51.300;12.394;2022-09-29T08:42:04;14.80;;;4.73;;
25327;SDS011;13279;51.300;12.394;2022-09-29T08:44:43;5.43;;;4.27;;
25327;SDS011;13279;51.300;12.394;2022-09-29T08:47:17;4.93;;;4.03;;
25327;SDS011;13279;51.300;12.394;2022-09-29T08:49:52;8.87;;;3.63;;
25327;SDS011;13279;51.300;12.394;2022-09-29T08:52:23;6.60;;;4.17;;
25327;SDS011;13279;51.300;12.394;2022-09-29T08:54:55;5.60;;;4.43;;
25327;SDS011;13279;51.300;12.394;2022-09-29T08:57:26;6.17;;;4.07;;
25327;SDS011;13279;51.300;12.394;2022-09-29T08:59:55;4.97;;;4.13;;
25327;SDS011;13279;51.300;12.394;2022-09-29T09:02:42;4.97;;;4.30;;
25327;SDS011;13279;51.300;12.394;2022-09-29T09:05:28;4.63;;;4.13;;
25327;SDS011;13279;51.300;12.394;2022-09-29T09:08:07;9.47;;;4.87;;
25327;SDS011;13279;51.300;12.394;2022-09-29T09:10:41;4.53;;;4.13;;
25327;SDS011;13279;51.300;12.394;2022-09-29T09:16:06;5.33;;;3.90;;
25327;SDS011;13279;51.300;12.394;2022-09-29T09:21:41;4.37;;;3.97;;
25327;SDS011;13279;51.300;12.394;2022-09-29T09:24:14;4.93;;;3.60;;
25327;SDS011;13279;51.300;12.394;2022-09-29T09:26:44;4.47;;;4.07;;
25327;SDS011;13279;51.300;12.394;2022-09-29T09:29:15;6.27;;;4.87;;
25327;SDS011;13279;51.300;12.394;2022-09-29T09:31:48;7.23;;;4.47;;
25327;SDS011;13279;51.300;12.394;2022-09-29T09:34:22;8.33;;;4.33;;
25327;SDS011;13279;51.300;12.394;2022-09-29T09:36:56;4.57;;;4.17;;
25327;SDS011;13279;51.300;12.394;2022-09-29T09:39:33;5.00;;;3.87;;
25327;SDS011;13279;51.300;12.394;2022-09-29T09:42:06;4.10;;;3.70;;
25327;SDS011;13279;51.300;12.394;2022-09-29T09:44:41;4.23;;;3.60;;
25327;SDS011;13279;51.300;12.394;2022-09-29T09:47:17;5.23;;;4.10;;
25327;SDS011;13279;51.300;12.394;2022-09-29T09:49:51;5.43;;;4.27;;
25327;SDS011;13279;51.300;12.394;2022-09-29T09:52:26;6.70;;;3.97;;
25327;SDS011;13279;51.300;12.394;2022-09-29T09:54:57;9.07;;;4.10;;
25327;SDS011;13279;51.300;12.394;2022-09-29T09:57:38;7.37;;;4.27;;
25327;SDS011;13279;51.300;12.394;2022-09-29T10:00:21;4.90;;;4.37;;
25327;SDS011;13279;51.300;12.394;2022-09-29T10:02:52;7.90;;;5.10;;
25327;SDS011;13279;51.300;12.394;2022-09-29T10:05:21;4.87;;;4.37;;
25327;SDS011;13279;51.300;12.394;2022-09-29T10:07:53;7.33;;;4.43;;
25327;SDS011;13279;51.300;12.394;2022-09-29T10:10:22;6.27;;;4.63;;
25327;SDS011;13279;51.300;12.394;2022-09-29T10:12:53;6.33;;;4.27;;
25327;SDS011;13279;51.300;12.394;2022-09-29T10:15:24;4.13;;;3.83;;
25327;SDS011;13279;51.300;12.394;2022-09-29T10:17:58;5.43;;;3.70;;
25327;SDS011;13279;51.300;12.394;2022-09-29T10:20:31;4.67;;;3.53;;
25327;SDS011;13279;51.300;12.394;2022-09-29T10:25:54;6.27;;;4.30;;
25327;SDS011;13279;51.300;12.394;2022-09-29T10:28:26;4.67;;;4.23;;
25327;SDS011;13279;51.300;12.394;2022-09-29T10:30:56;4.70;;;2.70;;
25327;SDS011;13279;51.300;12.394;2022-09-29T10:33:23;3.43;;;3.13;;
25327;SDS011;13279;51.300;12.394;2022-09-29T10:36:02;2.90;;;2.47;;
25327;SDS011;13279;51.300;12.394;2022-09-29T10:38:35;5.03;;;3.70;;
25327;SDS011;13279;51.300;12.394;2022-09-29T10:41:03;5.27;;;4.07;;
25327;SDS011;13279;51.300;12.394;2022-09-29T10:43:35;4.00;;;3.60;;
25327;SDS011;13279;51.300;12.394;2022-09-29T10:46:04;7.10;;;4.27;;
25327;SDS011;13279;51.300;12.394;2022-09-29T10:49:05;6.20;;;3.47;;
25327;SDS011;13279;51.300;12.394;2022-09-29T10:51:35;5.10;;;4.20;;
25327;SDS011;13279;51.300;12.394;2022-09-29T10:54:07;5.40;;;3.80;;
25327;SDS011;13279;51.300;12.394;2022-09-29T10:56:36;6.03;;;3.60;;
25327;SDS011;13279;51.300;12.394;2022-09-29T10:59:12;4.23;;;3.60;;
25327;SDS011;13279;51.300;12.394;2022-09-29T11:01:42;3.40;;;3.20;;
25327;SDS011;13279;51.300;12.394;2022-09-29T11:04:15;3.53;;;3.20;;
25327;SDS011;13279;51.300;12.394;2022-09-29T11:06:45;3.30;;;3.00;;
25327;SDS011;13279;51.300;12.394;2022-09-29T11:09:28;5.90;;;3.80;;
25327;SDS011;13279;51.300;12.394;2022-09-29T11:12:01;4.27;;;3.20;;
25327;SDS011;13279;51.300;12.394;2022-09-29T11:14:29;3.03;;;2.80;;
25327;SDS011;13279;51.300;12.394;2022-09-29T11:17:19;3.43;;;3.00;;
25327;SDS011;13279;51.300;12.394;2022-09-29T11:19:48;5.10;;;3.03;;
25327;SDS011;13279;51.300;12.394;2022-09-29T11:25:24;3.73;;;2.50;;
25327;SDS011;13279;51.300;12.394;2022-09-29T11:28:13;3.40;;;2.97;;
25327;SDS011;13279;51.300;12.394;2022-09-29T11:31:01;4.23;;;2.70;;
25327;SDS011;13279;51.300;12.394;2022-09-29T11:33:38;4.63;;;2.90;;
25327;SDS011;13279;51.300;12.394;2022-09-29T11:36:16;10.23;;;2.70;;
25327;SDS011;13279;51.300;12.394;2022-09-29T11:38:57;5.20;;;2.60;;
25327;SDS011;13279;51.300;12.394;2022-09-29T11:41:44;2.87;;;2.60;;
25327;SDS011;13279;51.300;12.394;2022-09-29T11:44:26;3.37;;;2.27;;
25327;SDS011;13279;51.300;12.394;2022-09-29T11:47:12;3.57;;;2.20;;
25327;SDS011;13279;51.300;12.394;2022-09-29T11:50:08;3.00;;;2.70;;
25327;SDS011;13279;51.300;12.394;2022-09-29T11:52:57;3.57;;;2.80;;
25327;SDS011;13279;51.300;12.394;2022-09-29T11:55:38;2.03;;;1.93;;
25327;SDS011;13279;51.300;12.394;2022-09-29T11:58:20;3.27;;;2.37;;
25327;SDS011;13279;51.300;12.394;2022-09-29T12:01:03;4.90;;;2.20;;
25327;SDS011;13279;51.300;12.394;2022-09-29T12:03:43;4.47;;;2.60;;
25327;SDS011;13279;51.300;12.394;2022-09-29T12:06:30;3.73;;;2.43;;
25327;SDS011;13279;51.300;12.394;2022-09-29T12:09:16;4.10;;;2.30;;
25327;SDS011;13279;51.300;12.394;2022-09-29T12:11:58;6.30;;;2.30;;
25327;SDS011;13279;51.300;12.394;2022-09-29T12:14:36;3.27;;;2.10;;
25327;SDS011;13279;51.300;12.394;2022-09-29T12:17:10;4.43;;;2.60;;
25327;SDS011;13279;51.300;12.394;2022-09-29T12:19:42;3.63;;;2.40;;
25327;SDS011;13279;51.300;12.394;2022-09-29T12:22:13;3.00;;;2.70;;
25327;SDS011;13279;51.300;12.394;2022-09-29T12:24:45;4.50;;;2.23;;
25327;SDS011;13279;51.300;12.394;2022-09-29T12:27:17;3.90;;;1.93;;
25327;SDS011;13279;51.300;12.394;2022-09-29T12:29:51;2.87;;;2.50;;
25327;SDS011;13279;51.300;12.394;2022-09-29T12:32:24;3.27;;;2.23;;
25327;SDS011;13279;51.300;12.394;2022-09-29T12:34:55;1.97;;;1.77;;
25327;SDS011;13279;51.300;12.394;2022-09-29T12:37:30;4.27;;;2.40;;
25327;SDS011;13279;51.300;12.394;2022-09-29T12:40:04;2.80;;;2.50;;
25327;SDS011;13279;51.300;12.394;2022-09-29T12:42:47;5.27;;;2.40;;
25327;SDS011;13279;51.300;12.394;2022-09-29T12:45:32;2.53;;;2.33;;
25327;SDS011;13279;51.300;12.394;2022-09-29T12:48:16;5.07;;;3.00;;
25327;SDS011;13279;51.300;12.394;2022-09-29T12:51:02;3.57;;;2.77;;
25327;SDS011;13279;51.300;12.394;2022-09-29T12:53:53;3.27;;;2.17;;
25327;SDS011;13279;51.300;12.394;2022-09-29T12:56:30;2.47;;;2.27;;
25327;SDS011;13279;51.300;12.394;2022-09-29T12:59:03;3.20;;;1.93;;
25327;SDS011;13279;51.300;12.394;2022-09-29T13:01:37;2.93;;;1.93;;
25327;SDS011;13279;51.300;12.394;2022-09-29T13:04:20;2.50;;;1.70;;
25327;SDS011;13279;51.300;12.394;2022-09-29T13:07:20;5.43;;;2.30;;
25327;SDS011;13279;51.300;12.394;2022-09-29T13:10:13;3.07;;;2.10;;
25327;SDS011;13279;51.300;12.394;2022-09-29T13:13:09;2.37;;;2.17;;
25327;SDS011;13279;51.300;12.394;2022-09-29T13:15:57;2.00;;;1.90;;
25327;SDS011;13279;51.300;12.394;2022-09-29T13:18:37;2.10;;;1.70;;
25327;SDS011;13279;51.300;12.394;2022-09-29T13:21:17;2.33;;;1.70;;
25327;SDS011;13279;51.300;12.394;2022-09-29T13:23:54;2.17;;;1.80;;
25327;SDS011;13279;51.300;12.394;2022-09-29T13:26:46;3.23;;;1.93;;
25327;SDS011;13279;51.300;12.394;2022-09-29T13:29:23;2.17;;;1.97;;
25327;SDS011;13279;51.300;12.394;2022-09-29T13:31:52;2.03;;;1.70;;
25327;SDS011;13279;51.300;12.394;2022-09-29T13:34:26;3.93;;;2.03;;
25327;SDS011;13279;51.300;12.394;2022-09-29T13:37:06;1.90;;;1.80;;
25327;SDS011;13279;51.300;12.394;2022-09-29T13:39:39;2.43;;;2.23;;
25327;SDS011;13279;51.300;12.394;2022-09-29T13:42:24;2.63;;;1.87;;
25327;SDS011;13279;51.300;12.394;2022-09-29T13:45:15;2.10;;;1.83;;
25327;SDS011;13279;51.300;12.394;2022-09-29T13:54:26;2.73;;;1.70;;
25327;SDS011;13279;51.300;12.394;2022-09-29T14:05:52;1.30;;;1.20;;
25327;SDS011;13279;51.300;12.394;2022-09-29T14:08:23;1.10;;;1.00;;
25327;SDS011;13279;51.300;12.394;2022-09-29T14:11:03;3.47;;;1.73;;
25327;SDS011;13279;51.300;12.394;2022-09-29T14:13:40;3.87;;;1.97;;
25327;SDS011;13279;51.300;12.394;2022-09-29T14:16:15;1.73;;;1.63;;
25327;SDS011;13279;51.300;12.394;2022-09-29T14:18:51;2.87;;;1.93;;
25327;SDS011;13279;51.300;12.394;2022-09-29T14:27:22;1.13;;;1.10;;
25327;SDS011;13279;51.300;12.394;2022-09-29T14:30:11;2.10;;;1.20;;
25327;SDS011;13279;51.300;12.394;2022-09-29T14:32:44;4.07;;;1.30;;
25327;SDS011;13279;51.300;12.394;2022-09-29T14:35:19;3.07;;;1.60;;
25327;SDS011;13279;51.300;12.394;2022-09-29T14:38:01;1.40;;;1.30;;
25327;SDS011;13279;51.300;12.394;2022-09-29T14:40:31;3.90;;;1.70;;
25327;SDS011;13279;51.300;12.394;2022-09-29T14:43:10;3.50;;;1.47;;
25327;SDS011;13279;51.300;12.394;2022-09-29T14:45:56;2.53;;;2.13;;
25327;SDS011;13279;51.300;12.394;2022-09-29T14:49:13;2.37;;;1.70;;
25327;SDS011;13279;51.300;12.394;2022-09-29T14:52:30;1.73;;;1.27;;
25327;SDS011;13279;51.300;12.394;2022-09-29T14:55:09;4.93;;;1.87;;
25327;SDS011;13279;51.300;12.394;2022-09-29T14:57:46;1.47;;;1.17;;
25327;SDS011;13279;51.300;12.394;2022-09-29T15:00:27;3.07;;;1.50;;
25327;SDS011;13279;51.300;12.394;2022-09-29T15:03:07;4.40;;;1.70;;
25327;SDS011;13279;51.300;12.394;2022-09-29T15:05:35;1.53;;;1.33;;
25327;SDS011;13279;51.300;12.394;2022-09-29T15:08:18;3.07;;;1.43;;
25327;SDS011;13279;51.300;12.394;2022-09-29T15:10:51;3.63;;;1.40;;
25327;SDS011;13279;51.300;12.394;2022-09-29T15:13:22;3.37;;;1.60;;
25327;SDS011;13279;51.300;12.394;2022-09-29T15:15:57;2.90;;;1.40;;
25327;SDS011;13279;51.300;12.394;2022-09-29T15:18:33;1.77;;;1.33;;
25327;SDS011;13279;51.300;12.394;2022-09-29T15:21:16;1.53;;;1.43;;
25327;SDS011;13279;51.300;12.394;2022-09-29T15:23:56;2.47;;;1.70;;
25327;SDS011;13279;51.300;12.394;2022-09-29T15:26:40;2.63;;;1.50;;
25327;SDS011;13279;51.300;12.394;2022-09-29T15:29:09;8.07;;;1.60;;
25327;SDS011;13279;51.300;12.394;2022-09-29T15:31:45;1.87;;;1.53;;
25327;SDS011;13279;51.300;12.394;2022-09-29T15:34:14;2.63;;;1.60;;
25327;SDS011;13279;51.300;12.394;2022-09-29T15:36:45;3.33;;;1.87;;
25327;SDS011;13279;51.300;12.394;2022-09-29T15:42:11;5.23;;;1.60;;
25327;SDS011;13279;51.300;12.394;2022-09-29T15:44:45;8.03;;;1.90;;